sensor_id;sensor_type;location;lat;lon;timestamp;P1;durP1;ratioP1;P2;durP2;ratioP2
67514;SDS011;60646;55.802;37.032;2024-01-25T00:01:30;8.20;;;3.45;;
67514;SDS011;60646;55.802;37.032;2024-01-25T00:03:56;10.63;;;3.50;;
67514;SDS011;60646;55.802;37.032;2024-01-25T00:06:40;9.10;;;3.90;;
67514;SDS011;60646;55.802;37.032;2024-01-25T00:09:06;8.30;;;3.38;;
67514;SDS011;60646;55.802;37.032;2024-01-25T00:11:32;9.32;;;3.58;;
67514;SDS011;60646;55.802;37.032;2024-01-25T00:13:58;8.35;;;3.38;;
67514;SDS011;60646;55.802;37.032;2024-01-25T00:16:23;9.05;;;3.50;;
67514;SDS011;60646;55.802;37.032;2024-01-25T00:18:49;8.00;;;3.75;;
67514;SDS011;60646;55.802;37.032;2024-01-25T00:21:15;9.63;;;3.30;;
67514;SDS011;60646;55.802;37.032;2024-01-25T00:23:42;8.43;;;3.25;;
67514;SDS011;60646;55.802;37.032;2024-01-25T00:26:08;8.27;;;3.17;;
67514;SDS011;60646;55.802;37.032;2024-01-25T00:28:34;9.05;;;3.88;;
67514;SDS011;60646;55.802;37.032;2024-01-25T00:30:59;7.53;;;3.25;;
67514;SDS011;60646;55.802;37.032;2024-01-25T00:33:25;9.00;;;3.63;;
67514;SDS011;60646;55.802;37.032;2024-01-25T00:35:51;6.88;;;3.40;;
67514;SDS011;60646;55.802;37.032;2024-01-25T00:38:17;8.95;;;3.42;;
67514;SDS011;60646;55.802;37.032;2024-01-25T00:40:43;9.40;;;3.85;;
67514;SDS011;60646;55.802;37.032;2024-01-25T00:43:09;9.10;;;3.38;;
67514;SDS011;60646;55.802;37.032;2024-01-25T00:45:36;8.55;;;3.63;;
67514;SDS011;60646;55.802;37.032;2024-01-25T00:48:02;7.13;;;3.47;;
67514;SDS011;60646;55.802;37.032;2024-01-25T00:50:28;9.60;;;3.75;;
67514;SDS011;60646;55.802;37.032;2024-01-25T00:52:54;9.65;;;3.75;;
67514;SDS011;60646;55.802;37.032;2024-01-25T00:55:20;9.05;;;3.83;;
67514;SDS011;60646;55.802;37.032;2024-01-25T00:57:46;9.20;;;3.67;;
67514;SDS011;60646;55.802;37.032;2024-01-25T01:00:12;6.72;;;3.58;;
67514;SDS011;60646;55.802;37.032;2024-01-25T01:02:39;9.63;;;3.83;;
67514;SDS011;60646;55.802;37.032;2024-01-25T01:05:08;8.90;;;3.85;;
67514;SDS011;60646;55.802;37.032;2024-01-25T01:07:34;9.40;;;3.17;;
67514;SDS011;60646;55.802;37.032;2024-01-25T01:10:19;7.75;;;3.47;;
67514;SDS011;60646;55.802;37.032;2024-01-25T01:12:45;8.73;;;3.50;;
67514;SDS011;60646;55.802;37.032;2024-01-25T01:15:11;8.98;;;3.20;;
67514;SDS011;60646;55.802;37.032;2024-01-25T01:17:37;8.95;;;3.70;;
67514;SDS011;60646;55.802;37.032;2024-01-25T01:20:03;11.35;;;4.05;;
67514;SDS011;60646;55.802;37.032;2024-01-25T01:22:29;8.07;;;3.50;;
67514;SDS011;60646;55.802;37.032;2024-01-25T01:24:55;9.13;;;3.42;;
67514;SDS011;60646;55.802;37.032;2024-01-25T01:27:21;8.32;;;3.03;;
67514;SDS011;60646;55.802;37.032;2024-01-25T01:29:47;8.23;;;3.45;;
67514;SDS011;60646;55.802;37.032;2024-01-25T01:32:13;7.00;;;2.95;;
67514;SDS011;60646;55.802;37.032;2024-01-25T01:34:38;10.43;;;3.88;;
67514;SDS011;60646;55.802;37.032;2024-01-25T01:37:04;9.38;;;3.88;;
67514;SDS011;60646;55.802;37.032;2024-01-25T01:39:30;7.68;;;3.33;;
67514;SDS011;60646;55.802;37.032;2024-01-25T01:41:56;8.65;;;3.38;;
67514;SDS011;60646;55.802;37.032;2024-01-25T01:44:22;10.35;;;4.05;;
67514;SDS011;60646;55.802;37.032;2024-01-25T01:46:47;9.25;;;3.88;;
67514;SDS011;60646;55.802;37.032;2024-01-25T01:49:14;11.05;;;4.25;;
67514;SDS011;60646;55.802;37.032;2024-01-25T01:51:41;9.82;;;3.40;;
67514;SDS011;60646;55.802;37.032;2024-01-25T01:54:10;6.82;;;3.13;;
67514;SDS011;60646;55.802;37.032;2024-01-25T01:56:36;7.60;;;3.33;;
67514;SDS011;60646;55.802;37.032;2024-01-25T01:59:04;8.95;;;3.22;;
67514;SDS011;60646;55.802;37.032;2024-01-25T02:01:31;6.13;;;3.17;;
67514;SDS011;60646;55.802;37.032;2024-01-25T02:03:57;8.18;;;3.13;;
67514;SDS011;60646;55.802;37.032;2024-01-25T02:06:23;7.93;;;3.70;;
67514;SDS011;60646;55.802;37.032;2024-01-25T02:08:50;6.85;;;3.38;;
67514;SDS011;60646;55.802;37.032;2024-01-25T02:11:19;7.22;;;3.50;;
67514;SDS011;60646;55.802;37.032;2024-01-25T02:13:46;9.80;;;3.53;;
67514;SDS011;60646;55.802;37.032;2024-01-25T02:16:14;8.90;;;3.60;;
67514;SDS011;60646;55.802;37.032;2024-01-25T02:18:46;10.03;;;4.47;;
67514;SDS011;60646;55.802;37.032;2024-01-25T02:21:13;8.50;;;3.28;;
67514;SDS011;60646;55.802;37.032;2024-01-25T02:23:39;7.38;;;3.10;;
67514;SDS011;60646;55.802;37.032;2024-01-25T02:26:05;7.53;;;3.03;;
67514;SDS011;60646;55.802;37.032;2024-01-25T02:28:30;8.20;;;2.70;;
67514;SDS011;60646;55.802;37.032;2024-01-25T02:30:56;6.85;;;2.90;;
67514;SDS011;60646;55.802;37.032;2024-01-25T02:33:22;6.05;;;2.88;;
67514;SDS011;60646;55.802;37.032;2024-01-25T02:35:48;8.02;;;3.22;;
67514;SDS011;60646;55.802;37.032;2024-01-25T02:38:14;6.93;;;2.97;;
67514;SDS011;60646;55.802;37.032;2024-01-25T02:40:40;7.40;;;3.25;;
67514;SDS011;60646;55.802;37.032;2024-01-25T02:43:06;7.75;;;3.05;;
67514;SDS011;60646;55.802;37.032;2024-01-25T02:45:31;7.75;;;3.25;;
67514;SDS011;60646;55.802;37.032;2024-01-25T02:47:57;7.88;;;3.20;;
67514;SDS011;60646;55.802;37.032;2024-01-25T02:50:23;6.07;;;2.85;;
67514;SDS011;60646;55.802;37.032;2024-01-25T02:52:49;7.07;;;3.08;;
67514;SDS011;60646;55.802;37.032;2024-01-25T02:55:18;7.53;;;3.08;;
67514;SDS011;60646;55.802;37.032;2024-01-25T02:57:44;7.28;;;2.92;;
67514;SDS011;60646;55.802;37.032;2024-01-25T03:00:10;6.22;;;3.47;;
67514;SDS011;60646;55.802;37.032;2024-01-25T03:02:36;8.07;;;3.20;;
67514;SDS011;60646;55.802;37.032;2024-01-25T03:05:02;6.38;;;2.78;;
67514;SDS011;60646;55.802;37.032;2024-01-25T03:07:29;6.65;;;2.70;;
67514;SDS011;60646;55.802;37.032;2024-01-25T03:09:55;6.50;;;2.78;;
67514;SDS011;60646;55.802;37.032;2024-01-25T03:12:20;6.40;;;2.97;;
67514;SDS011;60646;55.802;37.032;2024-01-25T03:15:05;7.40;;;3.30;;
67514;SDS011;60646;55.802;37.032;2024-01-25T03:17:31;7.80;;;3.88;;
67514;SDS011;60646;55.802;37.032;2024-01-25T03:19:57;7.85;;;3.22;;
67514;SDS011;60646;55.802;37.032;2024-01-25T03:22:23;6.55;;;3.00;;
67514;SDS011;60646;55.802;37.032;2024-01-25T03:24:49;7.93;;;2.78;;
67514;SDS011;60646;55.802;37.032;2024-01-25T03:27:15;6.65;;;2.95;;
67514;SDS011;60646;55.802;37.032;2024-01-25T03:29:41;5.97;;;2.85;;
67514;SDS011;60646;55.802;37.032;2024-01-25T03:32:12;5.75;;;2.80;;
67514;SDS011;60646;55.802;37.032;2024-01-25T03:34:38;5.18;;;2.55;;
67514;SDS011;60646;55.802;37.032;2024-01-25T03:37:04;5.22;;;2.28;;
67514;SDS011;60646;55.802;37.032;2024-01-25T03:39:30;4.78;;;2.55;;
67514;SDS011;60646;55.802;37.032;2024-01-25T03:41:56;7.35;;;2.95;;
67514;SDS011;60646;55.802;37.032;2024-01-25T03:44:22;7.47;;;2.80;;
67514;SDS011;60646;55.802;37.032;2024-01-25T03:46:47;5.70;;;2.60;;
67514;SDS011;60646;55.802;37.032;2024-01-25T03:49:13;5.47;;;2.47;;
67514;SDS011;60646;55.802;37.032;2024-01-25T03:51:39;5.65;;;2.78;;
67514;SDS011;60646;55.802;37.032;2024-01-25T03:54:06;7.28;;;2.97;;
67514;SDS011;60646;55.802;37.032;2024-01-25T03:56:32;4.78;;;2.33;;
67514;SDS011;60646;55.802;37.032;2024-01-25T03:58:58;5.22;;;2.70;;
67514;SDS011;60646;55.802;37.032;2024-01-25T04:01:24;7.55;;;2.58;;
67514;SDS011;60646;55.802;37.032;2024-01-25T04:03:50;5.70;;;2.70;;
67514;SDS011;60646;55.802;37.032;2024-01-25T04:06:16;4.85;;;2.20;;
67514;SDS011;60646;55.802;37.032;2024-01-25T04:08:42;8.05;;;3.45;;
67514;SDS011;60646;55.802;37.032;2024-01-25T04:11:07;5.80;;;2.90;;
67514;SDS011;60646;55.802;37.032;2024-01-25T04:13:35;5.68;;;2.70;;
67514;SDS011;60646;55.802;37.032;2024-01-25T04:16:01;6.97;;;2.75;;
67514;SDS011;60646;55.802;37.032;2024-01-25T04:18:45;3.90;;;2.47;;
67514;SDS011;60646;55.802;37.032;2024-01-25T04:21:12;5.72;;;2.83;;
67514;SDS011;60646;55.802;37.032;2024-01-25T04:23:37;5.38;;;2.60;;
67514;SDS011;60646;55.802;37.032;2024-01-25T04:26:03;6.45;;;2.92;;
67514;SDS011;60646;55.802;37.032;2024-01-25T04:28:29;4.38;;;2.50;;
67514;SDS011;60646;55.802;37.032;2024-01-25T04:30:55;5.25;;;2.95;;
67514;SDS011;60646;55.802;37.032;2024-01-25T04:33:21;5.13;;;2.35;;
67514;SDS011;60646;55.802;37.032;2024-01-25T04:35:46;5.00;;;2.47;;
67514;SDS011;60646;55.802;37.032;2024-01-25T04:41:12;5.57;;;2.95;;
67514;SDS011;60646;55.802;37.032;2024-01-25T04:43:38;5.97;;;2.72;;
67514;SDS011;60646;55.802;37.032;2024-01-25T04:46:04;7.38;;;3.05;;
67514;SDS011;60646;55.802;37.032;2024-01-25T04:48:30;5.43;;;2.50;;
67514;SDS011;60646;55.802;37.032;2024-01-25T04:50:57;5.53;;;2.72;;
67514;SDS011;60646;55.802;37.032;2024-01-25T04:53:25;5.40;;;2.72;;
67514;SDS011;60646;55.802;37.032;2024-01-25T04:55:53;6.60;;;3.35;;
67514;SDS011;60646;55.802;37.032;2024-01-25T04:58:19;5.07;;;2.55;;
67514;SDS011;60646;55.802;37.032;2024-01-25T05:00:45;6.80;;;3.10;;
67514;SDS011;60646;55.802;37.032;2024-01-25T05:03:11;5.03;;;2.50;;
67514;SDS011;60646;55.802;37.032;2024-01-25T05:05:37;5.22;;;2.55;;
67514;SDS011;60646;55.802;37.032;2024-01-25T05:08:03;7.43;;;2.92;;
67514;SDS011;60646;55.802;37.032;2024-01-25T05:10:33;5.07;;;2.70;;
67514;SDS011;60646;55.802;37.032;2024-01-25T05:12:59;5.40;;;2.67;;
67514;SDS011;60646;55.802;37.032;2024-01-25T05:15:25;6.43;;;2.55;;
67514;SDS011;60646;55.802;37.032;2024-01-25T05:17:51;6.18;;;2.40;;
67514;SDS011;60646;55.802;37.032;2024-01-25T05:20:17;5.72;;;3.35;;
67514;SDS011;60646;55.802;37.032;2024-01-25T05:22:43;8.68;;;5.22;;
67514;SDS011;60646;55.802;37.032;2024-01-25T05:25:09;7.35;;;3.28;;
67514;SDS011;60646;55.802;37.032;2024-01-25T05:27:35;6.85;;;3.05;;
67514;SDS011;60646;55.802;37.032;2024-01-25T05:30:01;5.35;;;2.78;;
67514;SDS011;60646;55.802;37.032;2024-01-25T05:32:29;8.57;;;4.43;;
67514;SDS011;60646;55.802;37.032;2024-01-25T05:34:55;6.85;;;3.30;;
67514;SDS011;60646;55.802;37.032;2024-01-25T05:37:21;6.75;;;2.78;;
67514;SDS011;60646;55.802;37.032;2024-01-25T05:39:47;7.50;;;3.20;;
67514;SDS011;60646;55.802;37.032;2024-01-25T05:42:13;6.85;;;3.80;;
67514;SDS011;60646;55.802;37.032;2024-01-25T05:44:39;10.65;;;4.30;;
67514;SDS011;60646;55.802;37.032;2024-01-25T05:47:05;13.55;;;5.97;;
67514;SDS011;60646;55.802;37.032;2024-01-25T05:49:31;15.23;;;5.45;;
67514;SDS011;60646;55.802;37.032;2024-01-25T05:51:56;9.90;;;4.15;;
67514;SDS011;60646;55.802;37.032;2024-01-25T05:54:22;9.95;;;4.13;;
67514;SDS011;60646;55.802;37.032;2024-01-25T05:56:48;8.25;;;3.67;;
67514;SDS011;60646;55.802;37.032;2024-01-25T05:59:14;8.85;;;3.25;;
67514;SDS011;60646;55.802;37.032;2024-01-25T06:01:40;12.90;;;4.50;;
67514;SDS011;60646;55.802;37.032;2024-01-25T06:04:05;11.07;;;4.35;;
67514;SDS011;60646;55.802;37.032;2024-01-25T06:06:31;7.45;;;3.83;;
67514;SDS011;60646;55.802;37.032;2024-01-25T06:08:57;8.88;;;3.42;;
67514;SDS011;60646;55.802;37.032;2024-01-25T06:11:23;7.50;;;3.33;;
67514;SDS011;60646;55.802;37.032;2024-01-25T06:13:48;6.13;;;2.83;;
67514;SDS011;60646;55.802;37.032;2024-01-25T06:16:14;7.82;;;3.38;;
67514;SDS011;60646;55.802;37.032;2024-01-25T06:18:40;10.48;;;4.18;;
67514;SDS011;60646;55.802;37.032;2024-01-25T06:21:06;9.77;;;4.45;;
67514;SDS011;60646;55.802;37.032;2024-01-25T06:23:50;7.95;;;3.78;;
67514;SDS011;60646;55.802;37.032;2024-01-25T06:26:16;9.35;;;3.60;;
67514;SDS011;60646;55.802;37.032;2024-01-25T06:28:41;10.98;;;4.30;;
67514;SDS011;60646;55.802;37.032;2024-01-25T06:31:07;9.10;;;3.38;;
67514;SDS011;60646;55.802;37.032;2024-01-25T06:33:33;7.40;;;3.30;;
67514;SDS011;60646;55.802;37.032;2024-01-25T06:35:59;6.82;;;3.28;;
67514;SDS011;60646;55.802;37.032;2024-01-25T06:38:25;6.88;;;3.55;;
67514;SDS011;60646;55.802;37.032;2024-01-25T06:40:51;12.07;;;5.15;;
67514;SDS011;60646;55.802;37.032;2024-01-25T06:43:17;12.02;;;5.35;;
67514;SDS011;60646;55.802;37.032;2024-01-25T06:45:43;7.88;;;3.55;;
67514;SDS011;60646;55.802;37.032;2024-01-25T06:48:08;9.25;;;3.95;;
67514;SDS011;60646;55.802;37.032;2024-01-25T06:50:34;8.65;;;3.60;;
67514;SDS011;60646;55.802;37.032;2024-01-25T06:53:00;25.17;;;8.73;;
67514;SDS011;60646;55.802;37.032;2024-01-25T06:55:26;15.07;;;5.75;;
67514;SDS011;60646;55.802;37.032;2024-01-25T06:57:52;13.70;;;6.80;;
67514;SDS011;60646;55.802;37.032;2024-01-25T07:00:18;14.27;;;5.38;;
67514;SDS011;60646;55.802;37.032;2024-01-25T07:02:46;10.80;;;4.65;;
67514;SDS011;60646;55.802;37.032;2024-01-25T07:05:12;26.05;;;9.60;;
67514;SDS011;60646;55.802;37.032;2024-01-25T07:07:38;19.48;;;7.40;;
67514;SDS011;60646;55.802;37.032;2024-01-25T07:10:05;34.80;;;13.20;;
67514;SDS011;60646;55.802;37.032;2024-01-25T07:12:32;45.88;;;17.55;;
67514;SDS011;60646;55.802;37.032;2024-01-25T07:14:58;17.55;;;7.47;;
67514;SDS011;60646;55.802;37.032;2024-01-25T07:17:24;17.08;;;7.15;;
67514;SDS011;60646;55.802;37.032;2024-01-25T07:19:49;15.50;;;6.05;;
67514;SDS011;60646;55.802;37.032;2024-01-25T07:22:15;9.77;;;4.38;;
67514;SDS011;60646;55.802;37.032;2024-01-25T07:25:02;12.75;;;5.20;;
67514;SDS011;60646;55.802;37.032;2024-01-25T07:27:47;15.77;;;7.22;;
67514;SDS011;60646;55.802;37.032;2024-01-25T07:30:14;12.63;;;6.32;;
67514;SDS011;60646;55.802;37.032;2024-01-25T07:32:41;10.88;;;4.85;;
67514;SDS011;60646;55.802;37.032;2024-01-25T07:35:08;13.40;;;5.95;;
67514;SDS011;60646;55.802;37.032;2024-01-25T07:37:35;10.10;;;4.40;;
67514;SDS011;60646;55.802;37.032;2024-01-25T07:40:01;7.90;;;3.92;;
67514;SDS011;60646;55.802;37.032;2024-01-25T07:42:29;7.93;;;3.80;;
67514;SDS011;60646;55.802;37.032;2024-01-25T07:44:55;8.75;;;3.70;;
67514;SDS011;60646;55.802;37.032;2024-01-25T07:47:20;8.57;;;4.50;;
67514;SDS011;60646;55.802;37.032;2024-01-25T07:49:47;10.70;;;4.15;;
67514;SDS011;60646;55.802;37.032;2024-01-25T07:52:13;11.93;;;5.18;;
67514;SDS011;60646;55.802;37.032;2024-01-25T07:54:39;6.82;;;3.38;;
67514;SDS011;60646;55.802;37.032;2024-01-25T07:57:05;8.13;;;4.03;;
67514;SDS011;60646;55.802;37.032;2024-01-25T07:59:31;8.18;;;3.50;;
67514;SDS011;60646;55.802;37.032;2024-01-25T08:01:57;8.73;;;4.07;;
67514;SDS011;60646;55.802;37.032;2024-01-25T08:04:22;9.38;;;4.20;;
67514;SDS011;60646;55.802;37.032;2024-01-25T08:06:48;13.38;;;5.18;;
67514;SDS011;60646;55.802;37.032;2024-01-25T08:09:14;9.88;;;4.47;;
67514;SDS011;60646;55.802;37.032;2024-01-25T08:11:40;11.63;;;5.10;;
67514;SDS011;60646;55.802;37.032;2024-01-25T08:14:06;8.30;;;3.67;;
67514;SDS011;60646;55.802;37.032;2024-01-25T08:16:32;7.50;;;4.22;;
67514;SDS011;60646;55.802;37.032;2024-01-25T08:19:00;18.17;;;7.10;;
67514;SDS011;60646;55.802;37.032;2024-01-25T08:21:26;11.77;;;6.00;;
67514;SDS011;60646;55.802;37.032;2024-01-25T08:23:52;13.35;;;5.40;;
67514;SDS011;60646;55.802;37.032;2024-01-25T08:26:18;9.20;;;4.28;;
67514;SDS011;60646;55.802;37.032;2024-01-25T08:28:44;19.23;;;7.25;;
67514;SDS011;60646;55.802;37.032;2024-01-25T08:31:10;14.60;;;7.38;;
67514;SDS011;60646;55.802;37.032;2024-01-25T08:33:36;23.45;;;8.90;;
67514;SDS011;60646;55.802;37.032;2024-01-25T08:36:02;27.25;;;10.30;;
67514;SDS011;60646;55.802;37.032;2024-01-25T08:38:28;22.08;;;9.95;;
67514;SDS011;60646;55.802;37.032;2024-01-25T08:40:54;19.23;;;7.78;;
67514;SDS011;60646;55.802;37.032;2024-01-25T08:43:20;12.52;;;5.72;;
67514;SDS011;60646;55.802;37.032;2024-01-25T08:45:46;9.13;;;4.05;;
67514;SDS011;60646;55.802;37.032;2024-01-25T08:48:12;9.45;;;5.03;;
67514;SDS011;60646;55.802;37.032;2024-01-25T08:50:38;15.55;;;6.97;;
67514;SDS011;60646;55.802;37.032;2024-01-25T08:53:05;7.70;;;3.70;;
67514;SDS011;60646;55.802;37.032;2024-01-25T08:55:31;10.65;;;5.90;;
67514;SDS011;60646;55.802;37.032;2024-01-25T08:57:57;8.77;;;3.80;;
67514;SDS011;60646;55.802;37.032;2024-01-25T09:00:23;7.95;;;3.42;;
67514;SDS011;60646;55.802;37.032;2024-01-25T09:02:49;18.33;;;8.98;;
67514;SDS011;60646;55.802;37.032;2024-01-25T09:05:14;12.68;;;5.13;;
67514;SDS011;60646;55.802;37.032;2024-01-25T09:07:40;19.13;;;7.28;;
67514;SDS011;60646;55.802;37.032;2024-01-25T09:10:07;24.42;;;9.77;;
67514;SDS011;60646;55.802;37.032;2024-01-25T09:12:34;12.80;;;5.35;;
67514;SDS011;60646;55.802;37.032;2024-01-25T09:15:01;11.25;;;5.10;;
67514;SDS011;60646;55.802;37.032;2024-01-25T09:17:30;11.70;;;5.85;;
67514;SDS011;60646;55.802;37.032;2024-01-25T09:19:56;10.13;;;4.43;;
67514;SDS011;60646;55.802;37.032;2024-01-25T09:22:24;21.38;;;6.57;;
67514;SDS011;60646;55.802;37.032;2024-01-25T09:24:50;30.83;;;11.00;;
67514;SDS011;60646;55.802;37.032;2024-01-25T09:27:16;19.55;;;7.57;;
67514;SDS011;60646;55.802;37.032;2024-01-25T09:29:42;32.25;;;11.90;;
67514;SDS011;60646;55.802;37.032;2024-01-25T09:32:26;19.30;;;7.32;;
67514;SDS011;60646;55.802;37.032;2024-01-25T09:34:52;28.52;;;9.27;;
67514;SDS011;60646;55.802;37.032;2024-01-25T09:37:19;27.70;;;10.05;;
67514;SDS011;60646;55.802;37.032;2024-01-25T09:39:47;45.90;;;14.88;;
67514;SDS011;60646;55.802;37.032;2024-01-25T09:42:13;16.52;;;6.50;;
67514;SDS011;60646;55.802;37.032;2024-01-25T09:44:39;43.10;;;14.38;;
67514;SDS011;60646;55.802;37.032;2024-01-25T09:47:06;46.90;;;17.40;;
67514;SDS011;60646;55.802;37.032;2024-01-25T09:49:47;45.63;;;16.65;;
67514;SDS011;60646;55.802;37.032;2024-01-25T09:52:14;47.17;;;16.70;;
67514;SDS011;60646;55.802;37.032;2024-01-25T09:54:41;49.42;;;19.33;;
67514;SDS011;60646;55.802;37.032;2024-01-25T09:57:11;13.40;;;6.22;;
67514;SDS011;60646;55.802;37.032;2024-01-25T09:59:42;15.45;;;6.63;;
67514;SDS011;60646;55.802;37.032;2024-01-25T10:02:09;14.50;;;5.93;;
67514;SDS011;60646;55.802;37.032;2024-01-25T10:04:36;22.00;;;8.55;;
67514;SDS011;60646;55.802;37.032;2024-01-25T10:07:02;13.40;;;5.95;;
67514;SDS011;60646;55.802;37.032;2024-01-25T10:09:31;16.90;;;6.68;;
67514;SDS011;60646;55.802;37.032;2024-01-25T10:12:03;13.32;;;5.38;;
67514;SDS011;60646;55.802;37.032;2024-01-25T10:14:30;9.23;;;4.38;;
67514;SDS011;60646;55.802;37.032;2024-01-25T10:16:57;14.65;;;5.65;;
67514;SDS011;60646;55.802;37.032;2024-01-25T10:19:23;7.55;;;3.45;;
67514;SDS011;60646;55.802;37.032;2024-01-25T10:21:50;9.68;;;4.25;;
67514;SDS011;60646;55.802;37.032;2024-01-25T10:24:16;10.77;;;6.20;;
67514;SDS011;60646;55.802;37.032;2024-01-25T10:26:41;11.52;;;5.20;;
67514;SDS011;60646;55.802;37.032;2024-01-25T10:29:10;8.27;;;4.60;;
67514;SDS011;60646;55.802;37.032;2024-01-25T10:31:38;5.93;;;3.20;;
67514;SDS011;60646;55.802;37.032;2024-01-25T10:34:10;8.13;;;3.83;;
67514;SDS011;60646;55.802;37.032;2024-01-25T10:36:39;5.50;;;3.22;;
67514;SDS011;60646;55.802;37.032;2024-01-25T10:39:07;5.50;;;3.58;;
67514;SDS011;60646;55.802;37.032;2024-01-25T10:41:34;6.65;;;3.78;;
67514;SDS011;60646;55.802;37.032;2024-01-25T10:44:00;7.05;;;3.50;;
67514;SDS011;60646;55.802;37.032;2024-01-25T10:46:28;7.10;;;4.00;;
67514;SDS011;60646;55.802;37.032;2024-01-25T10:48:58;6.57;;;3.35;;
67514;SDS011;60646;55.802;37.032;2024-01-25T10:51:27;6.63;;;3.38;;
67514;SDS011;60646;55.802;37.032;2024-01-25T10:53:53;7.40;;;4.20;;
67514;SDS011;60646;55.802;37.032;2024-01-25T10:56:20;7.72;;;3.97;;
67514;SDS011;60646;55.802;37.032;2024-01-25T10:58:47;14.25;;;6.28;;
67514;SDS011;60646;55.802;37.032;2024-01-25T11:01:13;18.23;;;8.05;;
67514;SDS011;60646;55.802;37.032;2024-01-25T11:03:45;24.02;;;9.93;;
67514;SDS011;60646;55.802;37.032;2024-01-25T11:06:14;24.15;;;9.52;;
67514;SDS011;60646;55.802;37.032;2024-01-25T11:08:40;20.17;;;8.90;;
67514;SDS011;60646;55.802;37.032;2024-01-25T11:11:07;24.88;;;10.55;;
67514;SDS011;60646;55.802;37.032;2024-01-25T11:13:37;35.85;;;13.60;;
67514;SDS011;60646;55.802;37.032;2024-01-25T11:16:17;19.90;;;9.18;;
67514;SDS011;60646;55.802;37.032;2024-01-25T11:18:47;47.60;;;17.05;;
67514;SDS011;60646;55.802;37.032;2024-01-25T11:21:37;21.92;;;9.32;;
67514;SDS011;60646;55.802;37.032;2024-01-25T11:24:03;13.13;;;5.97;;
67514;SDS011;60646;55.802;37.032;2024-01-25T11:26:33;13.75;;;6.15;;
67514;SDS011;60646;55.802;37.032;2024-01-25T11:28:58;12.00;;;5.95;;
67514;SDS011;60646;55.802;37.032;2024-01-25T11:31:27;8.65;;;5.07;;
67514;SDS011;60646;55.802;37.032;2024-01-25T11:34:00;9.63;;;4.65;;
67514;SDS011;60646;55.802;37.032;2024-01-25T11:36:26;13.48;;;6.55;;
67514;SDS011;60646;55.802;37.032;2024-01-25T11:38:53;11.25;;;5.40;;
67514;SDS011;60646;55.802;37.032;2024-01-25T11:41:19;14.70;;;7.03;;
67514;SDS011;60646;55.802;37.032;2024-01-25T11:43:47;11.23;;;4.88;;
67514;SDS011;60646;55.802;37.032;2024-01-25T11:46:14;9.00;;;5.00;;
67514;SDS011;60646;55.802;37.032;2024-01-25T11:48:40;10.55;;;4.53;;
67514;SDS011;60646;55.802;37.032;2024-01-25T11:51:09;9.50;;;5.13;;
67514;SDS011;60646;55.802;37.032;2024-01-25T11:53:36;11.10;;;5.35;;
67514;SDS011;60646;55.802;37.032;2024-01-25T11:56:03;7.90;;;4.00;;
67514;SDS011;60646;55.802;37.032;2024-01-25T11:58:32;15.73;;;6.13;;
67514;SDS011;60646;55.802;37.032;2024-01-25T12:00:58;12.07;;;5.22;;
67514;SDS011;60646;55.802;37.032;2024-01-25T12:03:25;11.55;;;4.50;;
67514;SDS011;60646;55.802;37.032;2024-01-25T12:05:51;8.93;;;4.22;;
67514;SDS011;60646;55.802;37.032;2024-01-25T12:08:17;7.53;;;4.13;;
67514;SDS011;60646;55.802;37.032;2024-01-25T12:10:43;23.20;;;8.32;;
67514;SDS011;60646;55.802;37.032;2024-01-25T12:13:09;12.57;;;5.25;;
67514;SDS011;60646;55.802;37.032;2024-01-25T12:15:35;13.00;;;5.32;;
67514;SDS011;60646;55.802;37.032;2024-01-25T12:18:01;26.02;;;10.32;;
67514;SDS011;60646;55.802;37.032;2024-01-25T12:20:28;32.33;;;13.32;;
67514;SDS011;60646;55.802;37.032;2024-01-25T12:22:54;19.25;;;8.30;;
67514;SDS011;60646;55.802;37.032;2024-01-25T12:25:20;21.30;;;9.48;;
67514;SDS011;60646;55.802;37.032;2024-01-25T12:28:06;20.98;;;9.25;;
67514;SDS011;60646;55.802;37.032;2024-01-25T12:30:32;27.02;;;10.45;;
67514;SDS011;60646;55.802;37.032;2024-01-25T12:32:58;31.30;;;14.15;;
67514;SDS011;60646;55.802;37.032;2024-01-25T12:35:24;26.50;;;12.85;;
67514;SDS011;60646;55.802;37.032;2024-01-25T12:37:49;16.10;;;7.45;;
67514;SDS011;60646;55.802;37.032;2024-01-25T12:40:34;23.17;;;10.43;;
67514;SDS011;60646;55.802;37.032;2024-01-25T12:43:19;12.90;;;5.55;;
67514;SDS011;60646;55.802;37.032;2024-01-25T12:45:47;14.50;;;6.55;;
67514;SDS011;60646;55.802;37.032;2024-01-25T12:48:13;15.48;;;6.20;;
67514;SDS011;60646;55.802;37.032;2024-01-25T12:50:39;14.07;;;6.20;;
67514;SDS011;60646;55.802;37.032;2024-01-25T12:53:05;13.65;;;5.97;;
67514;SDS011;60646;55.802;37.032;2024-01-25T12:55:32;12.68;;;5.35;;
67514;SDS011;60646;55.802;37.032;2024-01-25T12:57:58;12.85;;;5.55;;
67514;SDS011;60646;55.802;37.032;2024-01-25T13:00:25;14.35;;;5.30;;
67514;SDS011;60646;55.802;37.032;2024-01-25T13:02:51;33.70;;;14.95;;
67514;SDS011;60646;55.802;37.032;2024-01-25T13:05:19;16.70;;;7.13;;
67514;SDS011;60646;55.802;37.032;2024-01-25T13:07:45;14.27;;;6.57;;
67514;SDS011;60646;55.802;37.032;2024-01-25T13:10:10;13.48;;;5.85;;
67514;SDS011;60646;55.802;37.032;2024-01-25T13:12:37;11.30;;;5.65;;
67514;SDS011;60646;55.802;37.032;2024-01-25T13:15:07;27.10;;;9.85;;
67514;SDS011;60646;55.802;37.032;2024-01-25T13:17:53;24.52;;;8.75;;
67514;SDS011;60646;55.802;37.032;2024-01-25T13:20:39;25.20;;;8.70;;
67514;SDS011;60646;55.802;37.032;2024-01-25T13:23:05;23.50;;;9.05;;
67514;SDS011;60646;55.802;37.032;2024-01-25T13:25:33;16.23;;;6.85;;
67514;SDS011;60646;55.802;37.032;2024-01-25T13:27:59;33.83;;;11.82;;
67514;SDS011;60646;55.802;37.032;2024-01-25T13:30:25;17.23;;;6.88;;
67514;SDS011;60646;55.802;37.032;2024-01-25T13:32:51;19.98;;;7.75;;
67514;SDS011;60646;55.802;37.032;2024-01-25T13:35:16;23.52;;;8.88;;
67514;SDS011;60646;55.802;37.032;2024-01-25T13:37:42;24.40;;;8.75;;
67514;SDS011;60646;55.802;37.032;2024-01-25T13:40:08;15.80;;;7.25;;
67514;SDS011;60646;55.802;37.032;2024-01-25T13:42:35;18.20;;;7.75;;
67514;SDS011;60646;55.802;37.032;2024-01-25T13:45:01;14.00;;;5.53;;
67514;SDS011;60646;55.802;37.032;2024-01-25T13:47:30;18.35;;;6.53;;
67514;SDS011;60646;55.802;37.032;2024-01-25T13:49:56;22.60;;;8.90;;
67514;SDS011;60646;55.802;37.032;2024-01-25T13:52:21;17.02;;;7.10;;
67514;SDS011;60646;55.802;37.032;2024-01-25T13:54:47;12.35;;;5.50;;
67514;SDS011;60646;55.802;37.032;2024-01-25T13:57:16;14.40;;;4.82;;
67514;SDS011;60646;55.802;37.032;2024-01-25T14:00:02;11.65;;;5.28;;
67514;SDS011;60646;55.802;37.032;2024-01-25T14:02:31;11.38;;;5.07;;
67514;SDS011;60646;55.802;37.032;2024-01-25T14:04:58;10.73;;;4.32;;
67514;SDS011;60646;55.802;37.032;2024-01-25T14:07:23;8.05;;;4.30;;
67514;SDS011;60646;55.802;37.032;2024-01-25T14:09:49;10.48;;;4.45;;
67514;SDS011;60646;55.802;37.032;2024-01-25T14:12:17;9.77;;;4.38;;
67514;SDS011;60646;55.802;37.032;2024-01-25T14:17:30;20.25;;;10.25;;
67514;SDS011;60646;55.802;37.032;2024-01-25T14:19:56;12.70;;;5.22;;
67514;SDS011;60646;55.802;37.032;2024-01-25T14:22:22;11.20;;;4.47;;
67514;SDS011;60646;55.802;37.032;2024-01-25T14:24:47;12.77;;;5.00;;
67514;SDS011;60646;55.802;37.032;2024-01-25T14:27:13;10.82;;;5.05;;
67514;SDS011;60646;55.802;37.032;2024-01-25T14:29:39;13.40;;;4.90;;
67514;SDS011;60646;55.802;37.032;2024-01-25T14:32:25;15.77;;;5.55;;
67514;SDS011;60646;55.802;37.032;2024-01-25T14:34:51;11.93;;;5.10;;